createdAt,value
2018-09-14T00:00:03.890Z,18.12
2018-09-14T00:02:34.596Z,19.45
2018-09-14T00:05:05.501Z,20.92
2018-09-14T00:07:36.456Z,20.65
2018-09-14T00:10:07.221Z,22.13
2018-09-14T00:12:37.957Z,22.07
2018-09-14T00:15:08.712Z,21.62
2018-09-14T00:17:39.397Z,22.37
2018-09-14T00:20:10.137Z,23.27
2018-09-14T00:22:40.855Z,27.40
2018-09-14T00:25:11.513Z,29.67
2018-09-14T00:27:42.228Z,25.05
2018-09-14T00:30:12.928Z,25.30
2018-09-14T00:32:43.745Z,26.17
2018-09-14T00:35:14.473Z,24.37
2018-09-14T00:37:45.176Z,27.55
2018-09-14T00:40:15.860Z,26.48
2018-09-14T00:42:46.588Z,24.65
2018-09-14T00:45:17.433Z,24.45
2018-09-14T00:47:48.136Z,26.65
2018-09-14T00:50:18.849Z,26.55
2018-09-14T00:52:49.580Z,25.82
2018-09-14T00:55:20.309Z,21.50
2018-09-14T00:57:51.166Z,25.48
2018-09-14T01:00:21.877Z,29.45
2018-09-14T01:02:52.616Z,24.82
2018-09-14T01:05:23.295Z,25.60
2018-09-14T01:07:54.026Z,26.95
2018-09-14T01:10:24.724Z,24.30
2018-09-14T01:12:55.421Z,27.45
2018-09-14T01:15:26.093Z,28.32
2018-09-14T01:17:56.826Z,24.52
2018-09-14T01:20:27.521Z,31.65
2018-09-14T01:22:58.207Z,27.30
2018-09-14T01:25:28.884Z,26.12
2018-09-14T01:27:59.581Z,26.68
2018-09-14T01:30:30.288Z,27.60
2018-09-14T01:33:01.013Z,27.22
2018-09-14T01:35:37.091Z,28.10
2018-09-14T01:38:07.806Z,30.15
2018-09-14T01:40:38.500Z,29.30
2018-09-14T01:43:09.181Z,28.17
2018-09-14T01:45:39.905Z,33.60
2018-09-14T01:48:10.610Z,26.73
2018-09-14T01:50:41.327Z,28.38
2018-09-14T01:53:12.205Z,33.63
2018-09-14T01:55:42.992Z,34.30
2018-09-14T01:58:13.672Z,35.03
2018-09-14T02:00:44.372Z,36.85
2018-09-14T02:03:15.385Z,34.18
2018-09-14T02:05:46.292Z,35.52
2018-09-14T02:08:16.999Z,38.65
2018-09-14T02:10:47.715Z,35.88
2018-09-14T02:13:18.432Z,34.43
2018-09-14T02:15:49.320Z,33.80
2018-09-14T02:18:20.053Z,37.65
2018-09-14T02:20:50.723Z,35.10
2018-09-14T02:23:21.596Z,33.67
2018-09-14T02:25:52.300Z,36.53
2018-09-14T02:28:23.040Z,35.10
2018-09-14T02:30:53.749Z,35.28
2018-09-14T02:33:24.453Z,35.98
2018-09-14T02:35:55.121Z,34.23
2018-09-14T02:38:25.875Z,35.92
2018-09-14T02:40:56.554Z,34.05
2018-09-14T02:43:27.250Z,34.08
2018-09-14T02:45:57.947Z,33.38
2018-09-14T02:48:28.966Z,33.65
2018-09-14T02:50:59.655Z,30.37
2018-09-14T02:53:30.719Z,31.37
2018-09-14T02:56:01.637Z,32.08
2018-09-14T02:58:32.331Z,33.60
2018-09-14T03:01:03.046Z,32.93
2018-09-14T03:03:33.786Z,30.00
2018-09-14T03:06:04.467Z,31.77
2018-09-14T03:08:35.196Z,31.02
2018-09-14T03:11:06.457Z,33.60
2018-09-14T03:13:37.113Z,28.52
2018-09-14T03:16:07.820Z,29.98
2018-09-14T03:18:38.533Z,33.98
2018-09-14T03:21:09.269Z,26.55
2018-09-14T03:23:39.929Z,31.40
2018-09-14T03:26:10.620Z,28.87
2018-09-14T03:28:41.433Z,30.97
2018-09-14T03:31:12.144Z,31.55
2018-09-14T03:33:42.810Z,29.75
2018-09-14T03:36:13.513Z,30.15
2018-09-14T03:38:44.202Z,28.32
2018-09-14T03:41:14.909Z,29.82
2018-09-14T03:43:45.646Z,27.37
2018-09-14T03:46:16.328Z,28.65
2018-09-14T03:48:50.034Z,30.27
2018-09-14T03:51:20.762Z,28.77
2018-09-14T03:53:51.451Z,29.23
2018-09-14T03:56:22.161Z,30.17
2018-09-14T03:58:52.840Z,28.83
2018-09-14T04:01:23.644Z,28.95
2018-09-14T04:03:54.399Z,27.82
2018-09-14T04:06:25.083Z,27.32
2018-09-14T04:08:55.800Z,25.45
2018-09-14T04:11:26.484Z,27.13
2018-09-14T04:13:57.191Z,27.02
2018-09-14T04:16:27.885Z,28.05
2018-09-14T04:19:03.764Z,24.95
2018-09-14T04:21:35.697Z,27.35
2018-09-14T04:24:06.420Z,33.10
2018-09-14T04:26:37.131Z,27.75
2018-09-14T04:29:08.275Z,30.72
2018-09-14T04:31:43.512Z,31.45
2018-09-14T04:34:18.749Z,26.27
2018-09-14T04:36:50.072Z,28.83
2018-09-14T04:39:20.742Z,29.60
2018-09-14T04:41:51.653Z,29.77
2018-09-14T04:44:22.398Z,27.95
2018-09-14T04:46:53.303Z,31.40
2018-09-14T04:49:23.960Z,30.55
2018-09-14T04:51:54.709Z,29.07
2018-09-14T04:54:25.389Z,28.90
2018-09-14T04:56:56.301Z,29.37
2018-09-14T04:59:26.972Z,32.50
2018-09-14T05:01:59.900Z,29.07
2018-09-14T05:04:30.595Z,35.43
2018-09-14T05:07:01.309Z,28.40
2018-09-14T05:09:32.003Z,27.90
2018-09-14T05:12:02.687Z,28.35
2018-09-14T05:14:33.413Z,30.00
2018-09-14T05:17:04.107Z,26.60
2018-09-14T05:19:34.828Z,28.25
2018-09-14T05:22:05.540Z,27.52
2018-09-14T05:24:36.340Z,27.87
2018-09-14T05:27:07.190Z,28.38
2018-09-14T05:29:38.123Z,25.70
2018-09-14T05:32:08.805Z,28.02
2018-09-14T05:34:39.517Z,31.77
2018-09-14T05:37:10.223Z,27.35
2018-09-14T05:39:40.933Z,31.30
2018-09-14T05:42:11.613Z,32.15
2018-09-14T05:44:42.326Z,30.37
2018-09-14T05:47:13.036Z,28.65
2018-09-14T05:49:43.714Z,33.30
2018-09-14T05:52:14.411Z,28.15
2018-09-14T05:54:45.296Z,27.95
2018-09-14T05:57:16.024Z,28.40
2018-09-14T05:59:46.694Z,33.45
2018-09-14T06:02:17.560Z,27.52
2018-09-14T06:04:48.282Z,31.93
2018-09-14T06:07:18.993Z,25.85
2018-09-14T06:09:49.668Z,28.83
2018-09-14T06:12:20.532Z,23.20
2018-09-14T06:14:51.217Z,25.45
2018-09-14T06:17:21.941Z,26.82
2018-09-14T06:19:52.629Z,33.45
2018-09-14T06:22:23.429Z,27.75
2018-09-14T06:24:54.260Z,30.68
2018-09-14T06:27:24.991Z,33.15
2018-09-14T06:29:55.665Z,27.48
2018-09-14T06:32:26.360Z,35.73
2018-09-14T06:34:57.069Z,28.95
2018-09-14T06:37:27.792Z,31.48
2018-09-14T06:39:58.561Z,28.12
2018-09-14T06:42:29.244Z,26.57
2018-09-14T06:45:00.043Z,30.88
2018-09-14T06:47:30.896Z,30.10
2018-09-14T06:50:01.611Z,30.32
2018-09-14T06:52:33.392Z,29.98
2018-09-14T06:55:04.277Z,29.37
2018-09-14T06:57:34.944Z,27.05
2018-09-14T07:00:05.809Z,31.12
2018-09-14T07:02:36.600Z,32.55
2018-09-14T07:05:07.385Z,28.45
2018-09-14T07:07:38.056Z,32.60
2018-09-14T07:10:08.775Z,27.35
2018-09-14T07:12:39.480Z,29.10
2018-09-14T07:15:10.219Z,25.30
2018-09-14T07:17:40.933Z,29.35
2018-09-14T07:20:11.800Z,26.15
2018-09-14T07:22:42.539Z,24.35
2018-09-14T07:25:13.286Z,24.60
2018-09-14T07:27:44.146Z,32.17
2018-09-14T07:30:14.980Z,27.60
2018-09-14T07:32:45.922Z,31.20
2018-09-14T07:35:16.809Z,24.70
2018-09-14T07:37:47.525Z,29.67
2018-09-14T07:40:18.211Z,18.62
2018-09-14T07:42:48.899Z,31.85
2018-09-14T07:45:19.613Z,30.32
2018-09-14T07:47:50.340Z,30.37
2018-09-14T07:50:21.025Z,26.10
2018-09-14T07:52:51.712Z,31.20
2018-09-14T07:55:22.493Z,25.92
2018-09-14T07:57:53.328Z,28.42
2018-09-14T08:00:24.045Z,37.00
2018-09-14T08:02:54.754Z,26.93
2018-09-14T08:05:25.636Z,29.18
2018-09-14T08:07:56.320Z,25.57
2018-09-14T08:10:27.041Z,28.10
2018-09-14T08:13:01.318Z,37.42
2018-09-14T08:15:32.011Z,29.23
2018-09-14T08:18:02.729Z,33.63
2018-09-14T08:20:33.609Z,28.83
2018-09-14T08:23:04.652Z,29.48
2018-09-14T08:25:35.319Z,29.57
2018-09-14T08:28:06.090Z,38.13
2018-09-14T08:30:36.952Z,32.83
2018-09-14T08:33:07.652Z,33.40
2018-09-14T08:38:15.376Z,35.83
2018-09-14T08:40:46.069Z,36.63
2018-09-14T08:43:16.785Z,35.35
2018-09-14T08:45:47.468Z,35.45
2018-09-14T08:48:18.184Z,35.80
2018-09-14T08:50:49.092Z,34.13
2018-09-14T08:53:19.760Z,32.08
2018-09-14T08:55:50.468Z,31.97
2018-09-14T08:58:21.153Z,35.70
2018-09-14T09:00:51.900Z,29.32
2018-09-14T09:03:22.768Z,28.55
2018-09-14T09:05:53.477Z,30.97
2018-09-14T09:08:24.140Z,33.95
2018-09-14T09:10:54.895Z,31.75
2018-09-14T09:13:25.572Z,29.63
2018-09-14T09:15:56.268Z,35.13
2018-09-14T09:18:26.948Z,30.82
2018-09-14T09:20:57.656Z,25.23
2018-09-14T09:23:28.365Z,29.77
2018-09-14T09:25:59.274Z,24.00
2018-09-14T09:28:29.957Z,23.05
2018-09-14T09:31:01.010Z,22.67
2018-09-14T09:33:31.732Z,23.73
2018-09-14T09:36:02.461Z,25.45
2018-09-14T09:38:33.532Z,20.95
2018-09-14T09:41:04.226Z,22.10
2018-09-14T09:43:35.084Z,23.77
2018-09-14T09:46:05.912Z,23.67
2018-09-14T09:48:36.608Z,19.00
2018-09-14T09:51:07.298Z,19.50
2018-09-14T09:53:38.215Z,22.93
2018-09-14T09:56:08.909Z,25.80
2018-09-14T09:58:39.660Z,25.70
2018-09-14T10:01:15.816Z,21.10
2018-09-14T10:03:51.968Z,27.15
2018-09-14T10:06:23.892Z,19.98
2018-09-14T10:08:55.476Z,24.50
2018-09-14T10:11:26.849Z,20.95
2018-09-14T10:13:57.568Z,18.15
2018-09-14T10:16:28.468Z,18.70
2018-09-14T10:18:59.193Z,23.32
2018-09-14T10:21:29.964Z,20.75
2018-09-14T10:24:00.856Z,22.42
2018-09-14T10:26:31.831Z,21.40
2018-09-14T10:29:02.635Z,19.10
2018-09-14T10:31:33.455Z,18.15
2018-09-14T10:34:04.195Z,18.37
2018-09-14T10:36:35.087Z,21.68
2018-09-14T10:39:08.992Z,22.15
2018-09-14T10:41:39.721Z,21.25
2018-09-14T10:44:10.436Z,20.52
2018-09-14T10:46:41.148Z,18.77
2018-09-14T10:49:11.861Z,23.73
2018-09-14T10:51:42.586Z,20.12
2018-09-14T10:54:13.329Z,20.68
2018-09-14T10:56:44.040Z,19.37
2018-09-14T10:59:14.777Z,21.85
2018-09-14T11:01:45.464Z,20.80
2018-09-14T11:04:16.216Z,20.50
2018-09-14T11:06:47.197Z,17.17
2018-09-14T11:09:18.001Z,19.40
2018-09-14T11:11:48.714Z,17.35
2018-09-14T11:14:19.425Z,25.60
2018-09-14T11:16:50.133Z,20.92
2018-09-14T11:19:20.844Z,18.17
2018-09-14T11:21:51.737Z,21.07
2018-09-14T11:24:22.453Z,19.48
2018-09-14T11:26:53.146Z,19.20
2018-09-14T11:29:23.853Z,21.48
2018-09-14T11:31:54.569Z,18.48
2018-09-14T11:34:25.269Z,19.55
2018-09-14T11:36:56.189Z,16.17
2018-09-14T11:39:26.877Z,15.35
2018-09-14T11:41:57.575Z,11.60
2018-09-14T11:44:28.333Z,12.37
2018-09-14T11:46:59.237Z,17.25
2018-09-14T11:49:29.939Z,13.83
2018-09-14T11:52:00.860Z,15.95
2018-09-14T11:54:31.547Z,17.48
2018-09-14T11:57:02.255Z,16.45
2018-09-14T11:59:32.981Z,16.32
2018-09-14T12:02:03.705Z,15.30
2018-09-14T12:04:34.425Z,19.62
2018-09-14T12:07:05.117Z,18.25
2018-09-14T12:09:35.849Z,16.25
2018-09-14T12:12:06.533Z,20.05
2018-09-14T12:14:36.948Z,14.33
2018-09-14T12:17:07.634Z,8.18
2018-09-14T12:19:38.305Z,8.38
2018-09-14T12:22:09.140Z,8.30
2018-09-14T12:24:39.987Z,11.75
2018-09-14T12:27:10.388Z,9.37
2018-09-14T12:29:41.048Z,9.45
2018-09-14T12:32:11.945Z,12.05
2018-09-14T12:34:42.635Z,14.80
2018-09-14T12:37:13.337Z,14.65
2018-09-14T12:39:44.028Z,15.00
2018-09-14T12:42:14.748Z,14.65
2018-09-14T12:44:45.451Z,15.58
2018-09-14T12:47:15.861Z,14.37
2018-09-14T12:49:46.569Z,15.23
2018-09-14T12:52:16.948Z,13.07
2018-09-14T12:54:47.662Z,12.37
2018-09-14T12:57:18.331Z,14.83
2018-09-14T12:59:49.040Z,13.65
2018-09-14T13:02:19.712Z,16.20
2018-09-14T13:04:50.420Z,13.50
2018-09-14T13:07:21.337Z,10.08
2018-09-14T13:09:52.086Z,11.12
2018-09-14T13:12:22.776Z,11.25
2018-09-14T13:14:53.222Z,8.80
2018-09-14T13:17:24.047Z,10.58
2018-09-14T13:19:54.735Z,9.83
2018-09-14T13:22:25.139Z,8.03
2018-09-14T13:24:55.530Z,8.93
2018-09-14T13:27:26.424Z,11.80
2018-09-14T13:29:56.808Z,8.00
2018-09-14T13:32:27.230Z,9.47
2018-09-14T13:34:57.638Z,8.73
2018-09-14T13:37:28.056Z,9.50
2018-09-14T13:39:58.436Z,9.90
2018-09-14T13:42:29.201Z,9.93
2018-09-14T13:44:59.653Z,6.53
2018-09-14T13:47:30.053Z,7.73
2018-09-14T13:50:00.472Z,10.07
2018-09-14T13:52:30.849Z,6.90
2018-09-14T13:55:01.256Z,7.30
2018-09-14T13:57:31.629Z,7.33
2018-09-14T14:00:03.076Z,7.63
2018-09-14T14:02:33.900Z,6.03
2018-09-14T14:05:04.433Z,5.67
2018-09-14T14:07:34.823Z,6.63
2018-09-14T14:10:05.609Z,5.73
2018-09-14T14:12:35.980Z,8.10
2018-09-14T14:15:06.795Z,7.20
2018-09-14T14:17:37.486Z,8.17
2018-09-14T14:20:08.365Z,6.03
2018-09-14T14:22:38.785Z,9.47
2018-09-14T14:25:09.308Z,9.70
2018-09-14T14:27:39.712Z,5.53
2018-09-14T14:30:10.123Z,8.00
2018-09-14T14:32:40.529Z,6.60
2018-09-14T14:35:10.945Z,5.97
2018-09-14T14:37:41.536Z,6.53
2018-09-14T14:40:11.972Z,6.40
2018-09-14T14:42:42.368Z,6.77
2018-09-14T14:45:12.827Z,6.63
2018-09-14T14:47:43.236Z,5.03
2018-09-14T14:50:13.729Z,7.30
2018-09-14T14:52:44.153Z,4.70
2018-09-14T14:55:14.620Z,6.93
2018-09-14T14:57:45.144Z,5.20
2018-09-14T15:00:15.550Z,8.47
2018-09-14T15:02:45.977Z,6.33
2018-09-14T15:05:16.480Z,6.17
2018-09-14T15:07:46.911Z,7.50
2018-09-14T15:10:18.050Z,4.60
2018-09-14T15:12:48.493Z,7.10
2018-09-14T15:15:18.921Z,6.53
2018-09-14T15:17:49.334Z,5.90
2018-09-14T15:20:19.706Z,4.93
2018-09-14T15:22:50.115Z,6.23
2018-09-14T15:25:20.513Z,5.97
2018-09-14T15:27:51.103Z,5.03
2018-09-14T15:30:21.642Z,4.47
2018-09-14T15:32:52.109Z,4.17
2018-09-14T15:35:22.506Z,4.30
2018-09-14T15:37:52.916Z,5.63
2018-09-14T15:40:23.847Z,4.27
2018-09-14T15:42:54.221Z,6.87
2018-09-14T15:45:24.828Z,5.07
2018-09-14T15:47:55.229Z,6.27
2018-09-14T15:50:25.632Z,4.97
2018-09-14T15:52:56.028Z,3.53
2018-09-14T15:55:26.436Z,5.03
2018-09-14T15:57:57.136Z,20.30
2018-09-14T16:00:27.557Z,10.63
2018-09-14T16:02:57.939Z,26.40
2018-09-14T16:05:28.412Z,8.10
2018-09-14T16:07:58.812Z,4.07
2018-09-14T16:10:29.224Z,6.37
2018-09-14T16:12:59.904Z,5.43
2018-09-14T16:15:30.284Z,6.30
2018-09-14T16:18:00.698Z,8.00
2018-09-14T16:20:31.272Z,6.10
2018-09-14T16:23:01.690Z,8.97
2018-09-14T16:25:32.360Z,6.50
2018-09-14T16:28:03.733Z,7.90
2018-09-14T16:30:35.156Z,5.97
2018-09-14T16:33:05.925Z,7.23
2018-09-14T16:35:36.605Z,10.95
2018-09-14T16:38:07.040Z,6.60
2018-09-14T16:40:37.572Z,8.13
2018-09-14T16:43:07.973Z,7.97
2018-09-14T16:45:38.409Z,8.03
2018-09-14T16:48:09.067Z,6.75
2018-09-14T16:50:39.805Z,7.30
2018-09-14T16:53:10.207Z,5.60
2018-09-14T16:55:40.604Z,5.70
2018-09-14T16:58:11.293Z,5.40
2018-09-14T17:00:41.700Z,7.03
2018-09-14T17:03:12.101Z,6.17
2018-09-14T17:05:42.537Z,5.80
2018-09-14T17:08:13.211Z,5.95
2018-09-14T17:10:43.913Z,6.72
2018-09-14T17:13:14.589Z,5.30
2018-09-14T17:15:45.024Z,3.73
2018-09-14T17:18:15.424Z,9.23
2018-09-14T17:20:45.813Z,5.20
2018-09-14T17:23:16.794Z,6.42
2018-09-14T17:25:47.178Z,4.27
2018-09-14T17:28:17.589Z,4.83
2018-09-14T17:30:48.256Z,6.90
2018-09-14T17:33:18.660Z,4.80
2018-09-14T17:35:49.349Z,5.55
2018-09-14T17:38:19.857Z,4.07
2018-09-14T17:40:50.340Z,4.90
2018-09-14T17:43:20.762Z,4.00
2018-09-14T17:45:51.153Z,3.40
2018-09-14T17:48:21.569Z,3.80
2018-09-14T17:50:51.992Z,4.00
2018-09-14T17:53:22.391Z,4.07
2018-09-14T17:55:52.781Z,3.63
2018-09-14T17:58:23.244Z,3.10
2018-09-14T18:00:53.940Z,4.22
2018-09-14T18:03:24.698Z,2.83
2018-09-14T18:05:55.586Z,4.08
2018-09-14T18:08:26.222Z,4.03
2018-09-14T18:10:56.634Z,5.60
2018-09-14T18:13:27.037Z,5.67
2018-09-14T18:15:57.685Z,3.30
2018-09-14T18:18:28.757Z,2.75
2018-09-14T18:20:59.157Z,3.27
2018-09-14T18:23:29.536Z,2.70
2018-09-14T18:26:00.612Z,6.92
2018-09-14T18:28:30.990Z,4.33
2018-09-14T18:31:01.709Z,2.50
2018-09-14T18:33:32.400Z,4.53
2018-09-14T18:36:03.110Z,5.58
2018-09-14T18:38:33.956Z,4.45
2018-09-14T18:41:04.675Z,3.17
2018-09-14T18:43:35.396Z,5.12
2018-09-14T18:46:06.067Z,3.27
2018-09-14T18:48:36.760Z,3.08
2018-09-14T18:51:07.461Z,5.80
2018-09-14T18:53:38.601Z,4.12
2018-09-14T18:56:09.260Z,4.50
2018-09-14T18:58:39.957Z,4.05
2018-09-14T19:01:10.612Z,3.12
2018-09-14T19:03:41.329Z,10.28
2018-09-14T19:06:12.413Z,5.25
2018-09-14T19:08:43.125Z,5.53
2018-09-14T19:11:13.812Z,4.75
2018-09-14T19:13:44.530Z,5.95
2018-09-14T19:16:15.216Z,4.45
2018-09-14T19:18:46.300Z,6.35
2018-09-14T19:21:16.994Z,4.62
2018-09-14T19:23:47.648Z,4.85
2018-09-14T19:26:18.354Z,8.00
2018-09-14T19:28:49.217Z,4.00
2018-09-14T19:31:19.940Z,5.15
2018-09-14T19:33:50.666Z,4.25
2018-09-14T19:36:21.385Z,3.85
2018-09-14T19:38:52.065Z,7.08
2018-09-14T19:41:23.372Z,10.58
2018-09-14T19:43:54.049Z,4.30
2018-09-14T19:46:24.736Z,4.50
2018-09-14T19:48:55.392Z,3.90
2018-09-14T19:51:26.138Z,4.33
2018-09-14T19:53:56.989Z,4.10
2018-09-14T19:56:27.712Z,4.45
2018-09-14T19:58:58.728Z,8.10
2018-09-14T20:01:29.445Z,3.17
2018-09-14T20:04:00.124Z,5.20
2018-09-14T20:06:30.807Z,4.03
2018-09-14T20:09:01.460Z,3.45
2018-09-14T20:11:32.137Z,3.75
2018-09-14T20:14:03.036Z,3.77
2018-09-14T20:16:33.700Z,5.62
2018-09-14T20:19:04.407Z,7.70
2018-09-14T20:21:35.078Z,5.92
2018-09-14T20:24:05.790Z,6.47
2018-09-14T20:26:36.652Z,5.15
2018-09-14T20:29:07.360Z,3.30
2018-09-14T20:31:38.033Z,5.37
2018-09-14T20:34:08.732Z,4.33
2018-09-14T20:36:39.451Z,5.90
2018-09-14T20:39:11.708Z,5.58
2018-09-14T20:41:42.423Z,5.35
2018-09-14T20:44:13.122Z,6.08
2018-09-14T20:46:43.824Z,7.35
2018-09-14T20:49:14.484Z,6.10
2018-09-14T20:51:45.280Z,10.72
2018-09-14T20:54:16.140Z,4.90
2018-09-14T20:56:46.836Z,5.70
2018-09-14T20:59:17.716Z,5.30
2018-09-14T21:01:48.681Z,5.10
2018-09-14T21:04:19.431Z,8.48
2018-09-14T21:06:50.265Z,6.83
2018-09-14T21:09:20.957Z,8.08
2018-09-14T21:11:51.647Z,6.90
2018-09-14T21:14:22.341Z,6.58
2018-09-14T21:16:53.018Z,9.10
2018-09-14T21:19:23.718Z,13.38
2018-09-14T21:21:54.401Z,5.33
2018-09-14T21:24:25.091Z,7.00
2018-09-14T21:26:55.772Z,8.03
2018-09-14T21:29:26.453Z,6.90
2018-09-14T21:31:57.121Z,9.25
2018-09-14T21:34:27.811Z,6.58
2018-09-14T21:36:58.480Z,6.80
2018-09-14T21:39:29.188Z,6.00
2018-09-14T21:41:59.861Z,7.60
2018-09-14T21:44:30.558Z,7.62
2018-09-14T21:47:01.244Z,8.63
2018-09-14T21:49:31.971Z,6.08
2018-09-14T21:52:02.650Z,5.65
2018-09-14T21:54:33.333Z,6.55
2018-09-14T21:57:04.048Z,5.50
2018-09-14T21:59:34.715Z,7.08
2018-09-14T22:02:05.437Z,6.65
2018-09-14T22:04:36.103Z,6.47
2018-09-14T22:07:07.774Z,8.15
2018-09-14T22:09:38.432Z,7.20
2018-09-14T22:12:09.155Z,7.42
2018-09-14T22:14:39.816Z,9.68
2018-09-14T22:17:10.528Z,4.72
2018-09-14T22:19:41.220Z,5.35
2018-09-14T22:22:11.929Z,4.70
2018-09-14T22:24:42.772Z,5.33
2018-09-14T22:27:13.459Z,5.87
2018-09-14T22:29:44.164Z,7.20
2018-09-14T22:32:14.864Z,6.70
2018-09-14T22:34:45.773Z,7.58
2018-09-14T22:37:16.472Z,7.60
2018-09-14T22:39:47.132Z,6.75
2018-09-14T22:42:17.837Z,6.97
2018-09-14T22:44:48.594Z,5.10
2018-09-14T22:47:19.297Z,7.78
2018-09-14T22:49:49.977Z,7.05
2018-09-14T22:52:20.714Z,10.03
2018-09-14T22:54:51.449Z,4.03
2018-09-14T22:57:22.136Z,8.38
2018-09-14T22:59:52.826Z,5.53
2018-09-14T23:02:23.536Z,6.08
2018-09-14T23:04:54.209Z,5.33
2018-09-14T23:07:24.916Z,6.08
2018-09-14T23:09:55.572Z,5.75
2018-09-14T23:12:26.265Z,5.15
2018-09-14T23:14:56.948Z,4.42
2018-09-14T23:17:27.596Z,5.85
2018-09-14T23:19:58.284Z,6.80
2018-09-14T23:22:28.947Z,6.05
2018-09-14T23:24:59.643Z,4.60
2018-09-14T23:48:55.913Z,6.53
2018-09-14T23:51:26.055Z,6.55
2018-09-14T23:54:01.400Z,4.85
2018-09-14T23:56:36.836Z,6.33
2018-09-14T23:59:07.496Z,7.67
